Time;durP1;ratioP1;P1;durP2;ratioP2;P2;SDS_P1;SDS_P2;PMS_P1;PMS_P2;Temp;Humidity;BMP_temperature;BMP_pressure;BME280_temperature;BME280_humidity;BME280_pressure;Samples;Min_cycle;Max_cycle;Signal;HPM_P1;HPM_P2
2022/08/05 00:00:11;;;;;;;2.67;0.80;;;19.70;59.60;;;;;;4925584;29;20408;-58
2022/08/05 00:02:42;;;;;;;7.93;1.02;;;19.70;59.50;;;;;;4922199;29;20062;-56
2022/08/05 00:05:17;;;;;;;4.05;1.17;;;19.70;59.80;;;;;;4935480;29;20040;-57
2022/08/05 00:08:03;;;;;;;4.85;1.15;;;19.70;59.60;;;;;;4923517;29;20134;-57
2022/08/05 00:10:50;;;;;;;8.65;1.88;;;19.70;59.70;;;;;;4928826;29;20070;-57
2022/08/05 00:13:17;;;;;;;2.33;0.60;;;19.70;59.70;;;;;;4923978;29;20504;-55
2022/08/05 00:15:45;;;;;;;4.90;1.08;;;19.60;60.00;;;;;;4926153;29;20062;-57
2022/08/05 00:18:23;;;;;;;3.35;0.50;;;19.50;59.90;;;;;;4922693;29;20055;-55
2022/08/05 00:20:50;;;;;;;2.67;0.88;;;19.50;60.00;;;;;;4923636;29;20100;-56
2022/08/05 00:23:17;;;;;;;7.72;1.23;;;19.50;60.10;;;;;;4920353;29;20044;-56
2022/08/05 00:26:05;;;;;;;6.53;0.80;;;19.40;60.00;;;;;;4925710;29;20563;-57
2022/08/05 00:28:32;;;;;;;3.78;0.98;;;19.40;60.30;;;;;;4920655;29;20079;-57
2022/08/05 00:30:59;;;;;;;4.85;1.00;;;19.40;60.30;;;;;;4923864;28;20071;-57
2022/08/05 00:33:31;;;;;;;5.18;0.93;;;19.40;60.40;;;;;;4924972;29;20412;-57
2022/08/05 00:36:17;;;;;;;4.60;0.82;;;19.40;60.70;;;;;;4925733;29;20054;-55
2022/08/05 00:39:04;;;;;;;3.42;0.80;;;19.30;60.50;;;;;;4919780;29;20058;-57
2022/08/05 00:41:39;;;;;;;5.05;1.30;;;19.30;60.50;;;;;;4925859;29;20135;-57
2022/08/05 00:44:24;;;;;;;7.47;0.70;;;19.30;60.50;;;;;;4921879;29;20051;-58
2022/08/05 00:46:57;;;;;;;4.10;1.20;;;19.20;60.40;;;;;;4962081;29;20055;-56
2022/08/05 00:49:30;;;;;;;1.30;0.32;;;19.20;60.40;;;;;;4938883;29;20079;-54
2022/08/05 00:52:10;;;;;;;2.85;0.47;;;19.20;60.30;;;;;;4941580;29;20067;-55
2022/08/05 00:54:37;;;;;;;4.85;0.90;;;19.20;60.30;;;;;;4948351;29;20051;-56
2022/08/05 00:57:04;;;;;;;3.20;0.98;;;19.20;60.30;;;;;;4941440;29;20048;-57
2022/08/05 00:59:31;;;;;;;3.20;0.85;;;19.20;61.10;;;;;;4934654;29;20103;-54
2022/08/05 01:02:10;;;;;;;3.47;1.10;;;19.10;60.40;;;;;;4945819;29;20044;-55
2022/08/05 01:04:36;;;;;;;3.75;0.80;;;19.10;60.30;;;;;;4930171;29;20138;-56
2022/08/05 01:07:07;;;;;;;2.88;0.60;;;19.10;60.20;;;;;;4925322;29;20063;-57
2022/08/05 01:09:40;;;;;;;2.47;0.50;;;19.10;60.10;;;;;;4936857;28;20484;-55
2022/08/05 01:12:09;;;;;;;5.00;1.05;;;19.00;60.30;;;;;;4922184;29;20464;-57
2022/08/05 01:14:49;;;;;;;1.95;0.80;;;19.00;60.20;;;;;;4961441;28;20060;-57
2022/08/05 01:17:36;;;;;;;3.97;0.52;;;19.00;60.40;;;;;;4958722;28;20055;-57
2022/08/05 01:20:15;;;;;;;3.17;0.90;;;18.90;60.20;;;;;;4949890;29;20603;-57
2022/08/05 01:23:01;;;;;;;2.65;0.77;;;18.90;60.40;;;;;;4952638;29;20048;-57
2022/08/05 01:25:48;;;;;;;7.10;1.02;;;18.80;60.20;;;;;;4937918;29;20039;-57
2022/08/05 01:28:30;;;;;;;3.05;0.77;;;18.80;60.00;;;;;;4595453;28;10000563;-57
2022/08/05 01:31:20;;;;;;;2.92;0.68;;;18.70;59.90;;;;;;4932530;29;20377;-54
2022/08/05 01:34:00;;;;;;;2.60;0.47;;;18.70;60.40;;;;;;4922897;28;20106;-55
2022/08/05 01:36:30;;;;;;;5.78;0.88;;;18.60;61.50;;;;;;4921597;29;20555;-55
2022/08/05 01:38:58;;;;;;;4.18;0.80;;;18.60;60.50;;;;;;4927286;29;20047;-56
2022/08/05 01:41:28;;;;;;;1.50;0.50;;;18.60;60.50;;;;;;4935548;28;20138;-58
2022/08/05 01:43:55;;;;;;;4.55;0.77;;;18.60;60.60;;;;;;4944705;29;20154;-58
2022/08/05 01:46:22;;;;;;;2.30;0.63;;;18.50;60.60;;;;;;4917486;29;20062;-56
2022/08/05 01:49:15;;;;;;;2.50;0.75;;;18.40;60.80;;;;;;4941343;28;20545;-56
2022/08/05 01:51:52;;;;;;;2.83;0.45;;;18.40;61.00;;;;;;4926457;28;20055;-56
2022/08/05 01:54:19;;;;;;;5.00;0.77;;;18.40;61.30;;;;;;4914890;29;20084;-55
2022/08/05 01:56:51;;;;;;;2.00;0.60;;;18.40;61.50;;;;;;4925670;29;20110;-56
2022/08/05 01:59:38;;;;;;;3.30;0.55;;;18.40;61.70;;;;;;4940918;29;20058;-55
2022/08/05 02:02:05;;;;;;;1.45;0.63;;;18.40;62.00;;;;;;4923171;29;20107;-55
2022/08/05 02:04:36;;;;;;;3.83;0.73;;;18.40;62.00;;;;;;4930550;29;20477;-54
2022/08/05 02:07:06;;;;;;;3.97;0.80;;;18.30;62.20;;;;;;4901591;29;20047;-55
2022/08/05 02:09:35;;;;;;;1.90;0.65;;;18.40;62.40;;;;;;4940763;29;20043;-58
2022/08/05 02:12:21;;;;;;;7.20;0.75;;;18.30;62.50;;;;;;4933115;29;20060;-57
2022/08/05 02:15:13;;;;;;;4.18;0.80;;;18.20;63.00;;;;;;4942915;29;20284;-53
2022/08/05 02:17:52;;;;;;;;;;;18.20;63.60;;;;;;4941162;29;20079;-60
2022/08/05 02:20:56;;;;;;;4.15;0.73;;;18.20;64.20;;;;;;4937208;29;19923;-56
2022/08/05 02:23:30;;;;;;;1.60;0.55;;;18.20;64.00;;;;;;4948969;29;20056;-56
2022/08/05 02:26:01;;;;;;;4.25;0.88;;;18.10;63.70;;;;;;4938009;29;20054;-57
2022/08/05 02:28:30;;;;;;;6.00;1.05;;;18.10;63.80;;;;;;4945855;29;20044;-57
2022/08/05 02:31:11;;;;;;;3.03;1.02;;;18.10;64.10;;;;;;4926148;29;20075;-54
2022/08/05 02:33:43;;;;;;;9.05;0.77;;;17.90;65.00;;;;;;4932374;29;20048;-56
2022/08/05 02:36:15;;;;;;;2.50;0.65;;;17.90;64.60;;;;;;4946088;29;20093;-57
2022/08/05 02:38:46;;;;;;;2.67;0.63;;;17.90;65.00;;;;;;4929750;29;20091;-56
2022/08/05 02:41:20;;;;;;;4.97;0.63;;;17.90;65.00;;;;;;4937010;29;20079;-56
2022/08/05 02:43:48;;;;;;;7.07;0.93;;;17.90;65.00;;;;;;4941780;29;20063;-56
2022/08/05 02:46:35;;;;;;;5.43;0.85;;;18.00;65.10;;;;;;4934631;29;20051;-55
2022/08/05 02:49:22;;;;;;;2.03;1.08;;;17.80;65.60;;;;;;4919204;29;20048;-53
2022/08/05 02:51:49;;;;;;;9.07;0.70;;;17.70;66.00;;;;;;4932460;29;20330;-56
2022/08/05 02:54:30;;;;;;;5.43;1.10;;;17.70;66.10;;;;;;4931517;29;20059;-56
2022/08/05 02:57:05;;;;;;;1.23;0.50;;;17.80;65.90;;;;;;4922161;29;20130;-57
2022/08/05 02:59:36;;;;;;;5.20;1.02;;;17.80;65.80;;;;;;4932401;29;20046;-56
2022/08/05 03:02:22;;;;;;;5.88;1.50;;;17.70;66.20;;;;;;4932726;29;20048;-54
2022/08/05 03:04:49;;;;;;;3.75;0.80;;;17.70;66.60;;;;;;4932274;29;20455;-54
2022/08/05 03:07:19;;;;;;;3.17;1.15;;;17.70;66.80;;;;;;4932379;29;20126;-54
2022/08/05 03:10:06;;;;;;;4.32;0.93;;;17.70;66.70;;;;;;4933647;29;20044;-53
2022/08/05 03:12:35;;;;;;;6.60;1.08;;;17.70;66.90;;;;;;4933480;29;20086;-53
2022/08/05 03:15:06;;;;;;;4.60;0.47;;;17.60;67.00;;;;;;4933620;29;20086;-53
2022/08/05 03:17:36;;;;;;;5.38;0.77;;;17.50;67.00;;;;;;4933682;29;20047;-53
2022/08/05 03:20:10;;;;;;;4.55;0.80;;;17.50;67.10;;;;;;4933727;29;20051;-56
2022/08/05 03:22:39;;;;;;;3.70;0.95;;;17.50;67.10;;;;;;4933350;29;20067;-51
2022/08/05 03:25:16;;;;;;;2.88;0.73;;;17.50;67.10;;;;;;4933431;29;20066;-54
2022/08/05 03:28:06;;;;;;;5.10;2.53;;;17.50;67.00;;;;;;4919414;29;20458;-57
2022/08/05 03:30:34;;;;;;;2.05;0.68;;;17.40;67.20;;;;;;4936626;29;20035;-55
2022/08/05 03:33:01;;;;;;;3.58;0.63;;;17.40;67.30;;;;;;4955875;28;20031;-57
2022/08/05 03:35:29;;;;;;;3.50;1.13;;;17.40;67.50;;;;;;4956469;29;20036;-55
2022/08/05 03:37:59;;;;;;;11.75;1.02;;;17.20;67.80;;;;;;4955991;28;20044;-55
2022/08/05 03:40:26;;;;;;;3.72;0.80;;;17.20;67.80;;;;;;4956573;29;20051;-53
2022/08/05 03:42:58;;;;;;;4.75;0.90;;;17.20;67.80;;;;;;4955799;28;20036;-54
2022/08/05 03:45:41;;;;;;;3.75;1.27;;;17.30;68.00;;;;;;4956254;29;20072;-54
2022/08/05 03:48:24;;;;;;;3.78;0.82;;;17.20;68.20;;;;;;4955913;28;20042;-52
2022/08/05 03:51:04;;;;;;;2.53;0.55;;;17.20;68.30;;;;;;4956211;28;20031;-53
2022/08/05 03:53:55;;;;;;;6.30;0.77;;;17.20;68.40;;;;;;4946592;29;20107;-54
2022/08/05 03:56:44;;;;;;;4.63;0.90;;;17.10;69.30;;;;;;4946710;29;20086;-58
2022/08/05 03:59:20;;;;;;;3.42;0.80;;;17.10;68.70;;;;;;4949339;29;20122;-55
2022/08/05 04:01:50;;;;;;;3.92;0.73;;;17.20;69.00;;;;;;4926009;29;20075;-55
2022/08/05 04:04:18;;;;;;;1.70;0.60;;;17.20;68.50;;;;;;4947851;29;20052;-60
2022/08/05 04:06:47;;;;;;;10.05;1.40;;;17.20;68.60;;;;;;4953166;29;20059;-56
2022/08/05 04:09:17;;;;;;;4.28;0.63;;;17.00;69.10;;;;;;4937546;29;20546;-55
2022/08/05 04:11:51;;;;;;;1.20;0.40;;;16.90;69.00;;;;;;4935594;29;20055;-54
2022/08/05 04:14:18;;;;;;;4.57;0.80;;;16.90;69.10;;;;;;4935545;29;20174;-55
2022/08/05 04:16:57;;;;;;;2.83;0.80;;;17.00;69.10;;;;;;4931152;29;20079;-56
2022/08/05 04:19:24;;;;;;;2.60;0.85;;;17.00;69.20;;;;;;4932356;29;20142;-58
2022/08/05 04:21:51;;;;;;;5.35;0.95;;;17.00;69.10;;;;;;4932362;29;20136;-54
2022/08/05 04:24:41;;;;;;;5.10;1.35;;;17.00;69.20;;;;;;4930076;29;20051;-56
2022/08/05 04:27:11;;;;;;;3.77;1.20;;;17.00;69.30;;;;;;4931233;29;20052;-56
2022/08/05 04:29:39;;;;;;;1.35;0.70;;;16.90;69.60;;;;;;4931279;29;20455;-53
2022/08/05 04:32:06;;;;;;;4.55;0.98;;;16.80;69.90;;;;;;4931834;29;20079;-53
2022/08/05 04:34:33;;;;;;;3.72;0.65;;;16.80;71.00;;;;;;4932046;29;20138;-54
2022/08/05 04:37:08;;;;;;;3.65;0.85;;;16.70;70.40;;;;;;4932108;29;20090;-55
2022/08/05 04:39:36;;;;;;;5.25;0.80;;;16.70;70.60;;;;;;4931132;29;20296;-55
2022/08/05 04:42:05;;;;;;;5.38;1.02;;;16.80;70.80;;;;;;4931484;29;20577;-56
2022/08/05 04:44:32;;;;;;;2.40;0.80;;;16.70;70.90;;;;;;4932492;29;20055;-55
2022/08/05 04:46:59;;;;;;;4.32;0.70;;;16.70;71.10;;;;;;4931688;29;20147;-55
2022/08/05 04:49:37;;;;;;;3.92;0.85;;;16.70;71.40;;;;;;4932346;29;20062;-56
2022/08/05 04:52:23;;;;;;;5.20;1.10;;;16.70;71.50;;;;;;4911610;29;20055;-54
2022/08/05 04:54:53;;;;;;;3.42;0.90;;;16.60;71.70;;;;;;4927582;29;20051;-54
2022/08/05 04:57:23;;;;;;;5.82;1.00;;;16.60;72.00;;;;;;4911823;29;20059;-56
2022/08/05 04:59:55;;;;;;;4.07;1.10;;;16.60;72.10;;;;;;4926676;29;20431;-56
2022/08/05 05:02:22;;;;;;;7.07;0.85;;;16.60;72.30;;;;;;4930594;29;20511;-56
2022/08/05 05:05:04;;;;;;;4.10;0.90;;;16.60;72.40;;;;;;4930384;29;20052;-55
2022/08/05 05:07:51;;;;;;;4.20;0.93;;;16.60;72.50;;;;;;4912014;29;20047;-55
2022/08/05 05:10:27;;;;;;;3.10;0.70;;;16.70;72.60;;;;;;4927657;29;20053;-55
2022/08/05 05:12:55;;;;;;;8.35;1.33;;;16.70;72.50;;;;;;4930340;29;20048;-56
2022/08/05 05:15:26;;;;;;;8.50;1.65;;;16.70;72.70;;;;;;4929706;29;20052;-56
2022/08/05 05:18:14;;;;;;;5.32;0.93;;;16.70;72.80;;;;;;4912057;29;20075;-56
2022/08/05 05:20:56;;;;;;;4.28;1.10;;;16.60;72.70;;;;;;4929737;29;20062;-54
2022/08/05 05:23:24;;;;;;;7.93;0.95;;;16.60;72.70;;;;;;4930925;29;20055;-55
2022/08/05 05:25:51;;;;;;;9.00;1.00;;;16.60;72.50;;;;;;4930712;29;20135;-56
2022/08/05 05:28:18;;;;;;;4.10;1.27;;;16.70;72.20;;;;;;4931244;29;20052;-54
2022/08/05 05:30:46;;;;;;;4.38;1.17;;;16.70;72.10;;;;;;4931728;29;20504;-56
2022/08/05 05:33:15;;;;;;;3.70;0.77;;;16.70;71.70;;;;;;4932271;29;20083;-57
2022/08/05 05:35:46;;;;;;;7.50;0.93;;;16.70;71.60;;;;;;4942435;29;20083;-56
2022/08/05 05:38:14;;;;;;;3.45;0.98;;;16.50;71.90;;;;;;4942921;29;20055;-56
2022/08/05 05:40:53;;;;;;;3.00;1.00;;;16.40;72.40;;;;;;4933425;29;20044;-55
2022/08/05 05:43:21;;;;;;;8.10;1.08;;;16.40;72.40;;;;;;4931162;29;20063;-55
2022/08/05 05:46:08;;;;;;;5.80;1.52;;;16.40;72.30;;;;;;4931409;29;20114;-54
2022/08/05 05:48:45;;;;;;;3.20;0.80;;;16.50;72.20;;;;;;4934013;29;20106;-57
2022/08/05 05:51:24;;;;;;;2.72;0.50;;;16.60;72.50;;;;;;4933717;29;20449;-57
2022/08/05 05:53:51;;;;;;;3.55;0.73;;;16.60;72.90;;;;;;4935314;29;20079;-59
2022/08/05 05:56:28;;;;;;;7.28;0.85;;;16.60;72.20;;;;;;4936531;29;20047;-56
2022/08/05 05:58:59;;;;;;;2.22;0.90;;;16.60;72.20;;;;;;4939704;29;20055;-57
2022/08/05 06:01:30;;;;;;;5.97;1.00;;;16.70;72.10;;;;;;4940051;29;20506;-57
2022/08/05 06:04:07;;;;;;;4.88;1.33;;;16.70;71.80;;;;;;4943652;29;20083;-54
2022/08/05 06:06:43;;;;;;;4.78;1.05;;;16.70;71.80;;;;;;4946454;29;20063;-55
2022/08/05 06:09:14;;;;;;;2.20;1.00;;;16.70;71.80;;;;;;4947721;29;20147;-53
2022/08/05 06:11:53;;;;;;;1.15;0.75;;;16.70;72.20;;;;;;4945182;29;20043;-53
2022/08/05 06:14:29;;;;;;;3.33;1.05;;;16.70;72.50;;;;;;4943722;29;20143;-58
2022/08/05 06:16:56;;;;;;;3.72;0.95;;;16.70;72.60;;;;;;4944291;29;20566;-55
2022/08/05 06:19:24;;;;;;;5.07;1.20;;;16.70;72.30;;;;;;4945037;29;20107;-55
2022/08/05 06:22:05;;;;;;;4.20;0.82;;;16.60;72.60;;;;;;4944924;29;20051;-54
2022/08/05 06:24:33;;;;;;;9.70;1.30;;;16.60;72.50;;;;;;4943934;29;20055;-56
2022/08/05 06:27:00;;;;;;;4.30;0.90;;;16.70;72.80;;;;;;4941211;29;20075;-55
2022/08/05 06:29:30;;;;;;;4.95;0.90;;;16.70;72.80;;;;;;4938764;29;20083;-54
2022/08/05 06:32:17;;;;;;;4.45;0.63;;;16.80;72.40;;;;;;4945323;29;20063;-53
2022/08/05 06:34:55;;;;;;;5.28;1.20;;;16.90;72.30;;;;;;4957421;29;20035;-55
2022/08/05 06:37:25;;;;;;;3.88;1.10;;;17.00;71.70;;;;;;4951300;29;20052;-53
2022/08/05 06:40:12;;;;;;;8.50;1.08;;;17.00;71.00;;;;;;4950014;29;20503;-55
2022/08/05 06:42:39;;;;;;;7.38;0.90;;;16.90;71.30;;;;;;4952469;29;20035;-53
2022/08/05 06:45:07;;;;;;;6.72;1.10;;;17.00;71.50;;;;;;4947827;29;20044;-55
2022/08/05 06:47:35;;;;;;;9.00;1.77;;;17.00;70.80;;;;;;4945958;29;20052;-54
2022/08/05 06:50:25;;;;;;;6.25;1.25;;;17.10;70.70;;;;;;4954943;28;20103;-55
2022/08/05 06:52:54;;;;;;;3.47;1.10;;;17.10;70.70;;;;;;4954545;29;20290;-56
2022/08/05 06:55:37;;;;;;;2.60;0.90;;;17.10;70.80;;;;;;4950663;29;20051;-55
2022/08/05 06:58:08;;;;;;;3.95;0.80;;;17.10;71.10;;;;;;4950312;29;20145;-57
2022/08/05 07:00:46;;;;;;;4.78;0.90;;;17.10;70.90;;;;;;4953946;29;20039;-58
2022/08/05 07:03:13;;;;;;;5.20;0.82;;;17.10;70.90;;;;;;4931848;29;20237;-57
2022/08/05 07:05:42;;;;;;;5.35;1.00;;;17.10;70.50;;;;;;4930816;29;20079;-56
2022/08/05 07:08:11;;;;;;;2.42;0.93;;;17.10;70.20;;;;;;4931833;29;20051;-55
2022/08/05 07:10:39;;;;;;;3.70;0.93;;;17.10;70.50;;;;;;4931592;29;20106;-55
2022/08/05 07:19:32;;;;;;;8.30;1.52;;;17.30;68.80;;;;;;4930594;29;20560;-57
2022/08/05 07:22:21;;;;;;;5.10;0.80;;;17.40;68.80;;;;;;4928031;29;20052;-55
2022/08/05 07:24:58;;;;;;;3.30;1.35;;;17.40;68.80;;;;;;4931903;29;20087;-55
2022/08/05 07:27:46;;;;;;;3.25;0.80;;;17.50;68.40;;;;;;4931616;29;20058;-53
2022/08/05 07:30:29;;;;;;;4.72;0.90;;;17.50;67.60;;;;;;4931372;29;20056;-55
2022/08/05 07:32:59;;;;;;;4.32;0.80;;;17.50;67.90;;;;;;4931647;29;20059;-53
2022/08/05 07:35:26;;;;;;;7.50;1.02;;;17.60;67.10;;;;;;4931046;29;20139;-53
2022/08/05 07:38:16;;;;;;;8.90;1.23;;;17.60;66.80;;;;;;4932109;28;20067;-53
2022/08/05 07:41:01;;;;;;;3.30;1.17;;;17.70;66.40;;;;;;4931843;29;20075;-55
2022/08/05 07:43:48;;;;;;;5.28;1.60;;;17.70;66.70;;;;;;4930040;29;20056;-55
2022/08/05 07:46:15;;;;;;;6.20;1.10;;;17.80;67.10;;;;;;4931513;29;20645;-56
2022/08/05 07:48:52;;;;;;;7.18;1.08;;;17.80;66.90;;;;;;4930253;29;20411;-53
2022/08/05 07:51:34;;;;;;;5.03;0.82;;;17.80;66.60;;;;;;4928980;29;20107;-56
2022/08/05 07:54:14;;;;;;;6.63;1.10;;;17.80;66.40;;;;;;4915857;29;20114;-54
2022/08/05 07:56:41;;;;;;;7.60;1.08;;;17.80;66.60;;;;;;4930276;29;20048;-55
2022/08/05 07:59:28;;;;;;;8.27;1.80;;;17.80;66.70;;;;;;4930102;29;20432;-55
2022/08/05 08:02:06;;;;;;;7.15;1.00;;;17.90;66.80;;;;;;4930431;29;20047;-56
2022/08/05 08:04:44;;;;;;;6.13;0.82;;;17.90;66.70;;;;;;4931672;29;20517;-54
2022/08/05 08:07:12;;;;;;;5.80;1.10;;;18.00;66.80;;;;;;4928560;29;20433;-55
2022/08/05 08:09:39;;;;;;;6.03;1.75;;;18.00;66.30;;;;;;4931574;29;20119;-54
2022/08/05 08:12:06;;;;;;;3.72;0.90;;;18.20;65.90;;;;;;4931566;29;20086;-53
2022/08/05 08:14:53;;;;;;;7.93;1.23;;;18.20;66.00;;;;;;4931288;29;20078;-56
2022/08/05 08:17:20;;;;;;;6.50;1.05;;;18.00;65.90;;;;;;4914687;29;20051;-55
2022/08/05 08:19:47;;;;;;;14.13;1.40;;;18.10;66.40;;;;;;4921055;29;20079;-54
2022/08/05 08:22:34;;;;;;;4.78;1.10;;;18.20;66.00;;;;;;4931752;29;20432;-53
2022/08/05 08:25:01;;;;;;;6.50;1.17;;;18.30;66.30;;;;;;4931563;29;20083;-56
2022/08/05 08:27:32;;;;;;;2.70;0.98;;;18.40;66.20;;;;;;4931667;29;20063;-55
2022/08/05 08:30:13;;;;;;;6.93;1.13;;;18.40;65.60;;;;;;4931097;29;20048;-56
2022/08/05 08:33:00;;;;;;;5.97;1.98;;;18.40;65.30;;;;;;4927092;29;20459;-56
2022/08/05 08:35:35;;;;;;;5.13;1.23;;;18.30;65.30;;;;;;4922702;29;20111;-57
2022/08/05 08:38:07;;;;;;;4.55;0.77;;;18.40;65.80;;;;;;4925551;29;20058;-54
2022/08/05 08:40:42;;;;;;;3.75;0.90;;;18.40;65.10;;;;;;4923048;29;20051;-54
2022/08/05 08:43:18;;;;;;;8.88;1.00;;;18.50;65.10;;;;;;4926928;29;20574;-55
2022/08/05 08:46:05;;;;;;;6.97;1.20;;;18.50;65.40;;;;;;4924220;29;20043;-56
2022/08/05 08:48:35;;;;;;;4.78;1.20;;;18.60;65.10;;;;;;4924365;29;20051;-50
2022/08/05 08:51:22;;;;;;;5.10;1.25;;;18.60;64.30;;;;;;4929347;29;20048;-56
2022/08/05 08:54:09;;;;;;;3.95;0.95;;;18.70;64.00;;;;;;4935032;29;20047;-55
2022/08/05 08:56:39;;;;;;;4.43;2.13;;;18.70;63.70;;;;;;4930156;29;20054;-54
2022/08/05 08:59:19;;;;;;;6.25;0.88;;;18.70;64.00;;;;;;4929540;29;20062;-52
2022/08/05 09:01:47;;;;;;;6.78;0.82;;;18.70;63.10;;;;;;4929103;29;20079;-54
2022/08/05 09:04:26;;;;;;;3.53;0.93;;;18.70;64.00;;;;;;4920512;29;20054;-56
2022/08/05 09:06:56;;;;;;;2.65;1.00;;;18.90;64.20;;;;;;4927849;29;20095;-55
2022/08/05 09:09:24;;;;;;;10.15;2.80;;;19.10;63.50;;;;;;4917834;29;20107;-54
2022/08/05 09:12:00;;;;;;;4.93;0.90;;;19.00;63.40;;;;;;4926453;29;20535;-57
2022/08/05 09:14:46;;;;;;;5.80;1.17;;;19.00;62.30;;;;;;4926668;29;20384;-56
2022/08/05 09:17:25;;;;;;;4.35;0.93;;;18.90;63.10;;;;;;4927039;29;20357;-57
2022/08/05 09:20:08;;;;;;;4.03;1.08;;;18.90;63.30;;;;;;4928212;29;20051;-54
2022/08/05 09:23:11;;;;;;;4.38;0.70;;;18.90;63.60;;;;;;4929067;29;20146;-54
2022/08/05 09:25:49;;;;;;;4.93;0.80;;;18.90;61.80;;;;;;4966762;28;20050;-55
2022/08/05 09:28:30;;;;;;;7.95;1.83;;;19.00;62.10;;;;;;4929429;29;20055;-56
2022/08/05 09:31:10;;;;;;;6.55;1.08;;;19.10;62.40;;;;;;4930897;29;20079;-56
2022/08/05 09:34:02;;;;;;;2.38;0.80;;;19.30;61.80;;;;;;4930276;29;20048;-55
2022/08/05 09:36:48;;;;;;;6.53;1.05;;;19.30;61.00;;;;;;4930809;29;20142;-55
2022/08/05 09:39:25;;;;;;;4.45;1.00;;;19.20;60.50;;;;;;4928763;29;20066;-53
2022/08/05 09:42:16;;;;;;;8.63;0.85;;;19.10;61.70;;;;;;4931055;29;20048;-55
2022/08/05 09:44:53;;;;;;;4.28;0.90;;;19.30;61.40;;;;;;4930577;28;20047;-54
2022/08/05 09:47:23;;;;;;;3.08;0.88;;;19.40;59.80;;;;;;4930680;29;20106;-55
2022/08/05 09:49:55;;;;;;;8.30;1.30;;;19.30;60.70;;;;;;4930350;28;20515;-56
2022/08/05 09:52:32;;;;;;;3.03;0.50;;;19.40;60.20;;;;;;4929530;29;20157;-55
2022/08/05 09:55:00;;;;;;;5.90;1.17;;;19.70;59.30;;;;;;4930138;29;20048;-56
2022/08/05 09:57:47;;;;;;;5.43;0.95;;;19.90;58.80;;;;;;4930573;29;20146;-54
2022/08/05 10:00:15;;;;;;;7.68;1.08;;;20.30;58.80;;;;;;4930093;29;20130;-54
2022/08/05 10:02:43;;;;;;;6.18;0.95;;;20.80;58.60;;;;;;4931576;29;20056;-55
2022/08/05 10:05:18;;;;;;;4.07;0.90;;;21.30;56.80;;;;;;4934038;29;20087;-56
2022/08/05 10:07:54;;;;;;;2.63;0.80;;;21.50;56.60;;;;;;4922657;29;20058;-55
2022/08/05 10:10:43;;;;;;;4.78;1.00;;;21.10;53.70;;;;;;4933028;29;20052;-57
2022/08/05 10:13:10;;;;;;;3.95;1.38;;;21.30;54.20;;;;;;4933950;29;20142;-55
2022/08/05 10:15:40;;;;;;;2.97;1.73;;;21.30;54.20;;;;;;4933883;29;20230;-54
2022/08/05 10:18:11;;;;;;;4.72;1.00;;;21.50;55.50;;;;;;4934056;29;20131;-54
2022/08/05 10:20:58;;;;;;;3.63;1.05;;;21.80;52.70;;;;;;4933090;29;20048;-56
2022/08/05 10:23:33;;;;;;;1.70;0.80;;;21.60;52.10;;;;;;4933825;29;20058;-55
2022/08/05 10:26:20;;;;;;;4.35;0.80;;;21.80;53.90;;;;;;4933798;29;20047;-58
2022/08/05 10:28:58;;;;;;;4.65;0.88;;;22.30;53.20;;;;;;4934293;29;20131;-56
2022/08/05 10:31:25;;;;;;;4.88;0.98;;;22.70;52.90;;;;;;4933355;29;20059;-55
2022/08/05 10:34:12;;;;;;;2.33;0.95;;;22.80;51.10;;;;;;4933932;29;20416;-57
2022/08/05 10:36:40;;;;;;;2.90;0.73;;;22.80;51.00;;;;;;4933489;29;20044;-55
2022/08/05 10:39:17;;;;;;;2.47;0.90;;;22.80;50.10;;;;;;4916575;29;20051;-58
2022/08/05 10:42:14;;;;;;;3.17;0.47;;;22.30;49.60;;;;;;4930585;29;20062;-52
2022/08/05 10:44:58;;;;;;;3.28;0.90;;;22.40;50.60;;;;;;4932351;29;20051;-52
2022/08/05 10:47:33;;;;;;;8.48;0.60;;;22.70;51.50;;;;;;4916596;29;20077;-55
2022/08/05 10:50:04;;;;;;;4.20;0.80;;;22.60;49.10;;;;;;4933255;29;20107;-56
2022/08/05 10:52:55;;;;;;;6.20;0.98;;;22.30;51.60;;;;;;4923023;29;20052;-55
2022/08/05 10:55:24;;;;;;;4.68;0.88;;;22.40;51.80;;;;;;4933254;29;20119;-62
2022/08/05 10:58:08;;;;;;;5.50;0.60;;;22.50;51.90;;;;;;4932930;29;20052;-56
2022/08/05 11:00:37;;;;;;;5.20;0.82;;;22.40;50.10;;;;;;4932993;29;20048;-55
2022/08/05 11:03:10;;;;;;;6.87;1.33;;;21.90;51.70;;;;;;4931907;29;20044;-54
2022/08/05 11:06:12;;;;;;;4.40;0.90;;;21.90;51.70;;;;;;4932905;29;20290;-55
2022/08/05 11:09:11;;;;;;;2.80;0.95;;;21.90;50.70;;;;;;4933096;29;20059;-55
2022/08/05 11:11:45;;;;;;;3.03;1.10;;;21.40;50.50;;;;;;4932695;29;20055;-53
2022/08/05 11:14:45;;;;;;;3.33;1.20;;;21.10;52.40;;;;;;4932414;29;20106;-55
2022/08/05 11:17:37;;;;;;;5.50;1.00;;;21.20;51.20;;;;;;4931261;29;20313;-56
2022/08/05 11:20:42;;;;;;;4.07;1.48;;;21.20;52.30;;;;;;4915290;29;20427;-56
2022/08/05 11:23:42;;;;;;;4.05;0.98;;;20.70;52.10;;;;;;4931217;29;20055;-56
2022/08/05 11:26:29;;;;;;;6.55;0.93;;;20.80;52.40;;;;;;4932953;29;20044;-55
2022/08/05 11:29:02;;;;;;;2.55;0.80;;;20.90;52.80;;;;;;4931513;29;20107;-55
2022/08/05 11:31:41;;;;;;;5.25;0.77;;;21.10;53.10;;;;;;4931353;29;20521;-53
2022/08/05 11:34:37;;;;;;;2.92;0.80;;;21.30;53.30;;;;;;4923476;29;20052;-54
2022/08/05 11:37:04;;;;;;;4.32;0.70;;;21.50;52.40;;;;;;4932395;29;20134;-54
2022/08/05 11:39:51;;;;;;;4.40;1.00;;;21.50;52.80;;;;;;4932766;29;20595;-54
2022/08/05 11:42:26;;;;;;;3.40;0.82;;;21.50;52.90;;;;;;4932337;29;20051;-55
2022/08/05 11:44:55;;;;;;;5.32;1.20;;;21.50;52.00;;;;;;4931469;29;20078;-56
2022/08/05 11:47:24;;;;;;;10.68;1.15;;;21.40;52.00;;;;;;4912408;29;20083;-57
2022/08/05 11:50:11;;;;;;;3.33;1.08;;;21.40;52.40;;;;;;4931592;29;20047;-56
2022/08/05 11:52:40;;;;;;;2.30;0.60;;;21.50;52.80;;;;;;4930976;29;20056;-54
2022/08/05 11:55:10;;;;;;;3.97;0.90;;;21.70;52.00;;;;;;4932424;28;20087;-52
2022/08/05 11:57:38;;;;;;;5.72;1.33;;;21.80;52.20;;;;;;4931825;29;20468;-55
2022/08/05 12:00:28;;;;;;;5.32;1.10;;;22.10;52.00;;;;;;4918311;29;20584;-54
2022/08/05 12:02:56;;;;;;;6.88;1.58;;;22.00;50.60;;;;;;4932216;29;20056;-54
2022/08/05 12:05:26;;;;;;;3.40;0.95;;;22.00;51.40;;;;;;4930885;29;20308;-55
2022/08/05 12:08:05;;;;;;;5.25;0.98;;;22.00;50.20;;;;;;4931092;29;20132;-55
2022/08/05 12:10:37;;;;;;;2.38;0.80;;;21.60;49.90;;;;;;4930983;29;20053;-57
2022/08/05 12:13:13;;;;;;;3.95;0.77;;;21.50;51.20;;;;;;4930674;29;20111;-55
2022/08/05 12:15:46;;;;;;;3.45;1.17;;;21.50;51.30;;;;;;4930774;29;20369;-55
2022/08/05 12:18:18;;;;;;;3.60;1.10;;;21.60;50.30;;;;;;4931780;29;20075;-51
2022/08/05 12:20:49;;;;;;;4.82;1.08;;;21.50;51.10;;;;;;4922047;29;20048;-54
2022/08/05 12:23:17;;;;;;;4.30;1.10;;;21.50;51.30;;;;;;4930620;29;20048;-54
2022/08/05 12:25:51;;;;;;;4.00;0.82;;;21.30;51.80;;;;;;4931730;29;20052;-50
2022/08/05 12:28:35;;;;;;;3.50;1.10;;;21.70;51.20;;;;;;4931307;29;20055;-55
2022/08/05 12:31:03;;;;;;;1.20;0.60;;;21.90;50.10;;;;;;4931959;28;20044;-56
2022/08/05 12:33:30;;;;;;;6.22;1.77;;;21.80;51.50;;;;;;4931492;29;20087;-54
2022/08/05 12:36:07;;;;;;;;;;;22.10;51.40;;;;;;4930854;29;20055;-52
2022/08/05 12:38:38;;;;;;;7.07;1.95;;;22.40;49.70;;;;;;4930060;29;20021;-61
2022/08/05 12:41:13;;;;;;;3.35;1.42;;;22.60;49.50;;;;;;4914989;29;20059;-52
2022/08/05 12:43:49;;;;;;;5.65;0.90;;;22.60;48.90;;;;;;4931407;29;20059;-56
2022/08/05 12:46:27;;;;;;;4.32;1.17;;;22.60;50.00;;;;;;4928803;29;20123;-51
2022/08/05 12:49:13;;;;;;;7.60;1.00;;;22.70;49.20;;;;;;4931235;29;20107;-52
2022/08/05 12:51:48;;;;;;;5.43;1.08;;;22.70;48.90;;;;;;4930298;29;20048;-56
2022/08/05 12:54:34;;;;;;;4.07;0.75;;;22.90;49.20;;;;;;4930804;29;20043;-56
2022/08/05 12:57:06;;;;;;;2.47;1.05;;;23.10;48.50;;;;;;4931314;28;20051;-55
2022/08/05 12:59:48;;;;;;;2.85;0.82;;;23.10;48.40;;;;;;4931030;29;20047;-59
2022/08/05 13:02:35;;;;;;;8.90;1.33;;;23.30;47.70;;;;;;4923959;29;20086;-56
2022/08/05 13:05:05;;;;;;;1.80;0.63;;;23.40;48.60;;;;;;4931012;29;20044;-51
2022/08/05 13:07:32;;;;;;;11.07;0.90;;;23.30;48.30;;;;;;4931254;29;20086;-55
2022/08/05 13:10:19;;;;;;;4.65;0.80;;;23.20;48.40;;;;;;4916629;29;20479;-59
2022/08/05 13:12:46;;;;;;;2.28;0.60;;;23.30;48.70;;;;;;4930778;29;20059;-57
2022/08/05 13:15:28;;;;;;;6.90;1.08;;;23.50;46.80;;;;;;4930750;29;20058;-55
2022/08/05 13:18:14;;;;;;;1.80;0.60;;;23.50;47.10;;;;;;4931270;29;20056;-59
2022/08/05 13:20:45;;;;;;;5.95;0.75;;;23.30;47.50;;;;;;4930544;29;20066;-54
2022/08/05 13:23:12;;;;;;;0.98;0.50;;;23.10;46.60;;;;;;4931197;29;20079;-55
2022/08/05 13:25:42;;;;;;;4.43;0.80;;;23.10;46.60;;;;;;4930902;29;20510;-58
2022/08/05 13:28:24;;;;;;;12.32;1.00;;;22.90;47.90;;;;;;4931337;29;20098;-55
2022/08/05 13:30:51;;;;;;;4.43;1.48;;;23.00;48.40;;;;;;4930958;29;20487;-51
2022/08/05 13:33:20;;;;;;;4.97;0.52;;;23.10;48.30;;;;;;4931020;29;20044;-55
2022/08/05 13:36:07;;;;;;;2.58;0.68;;;23.20;48.40;;;;;;4930519;29;20048;-57
2022/08/05 13:38:35;;;;;;;1.85;0.60;;;23.30;47.50;;;;;;4916652;29;20099;-55